createdAt,value
2018-09-10T00:01:09.384Z,16.34
2018-09-10T00:03:38.479Z,16.25
2018-09-10T00:06:07.629Z,16.22
2018-09-10T00:08:36.873Z,16.21
2018-09-10T00:11:06.371Z,16.19
2018-09-10T00:13:35.305Z,16.15
2018-09-10T00:16:04.400Z,16.19
2018-09-10T00:18:33.738Z,16.14
2018-09-10T00:21:03.223Z,16.17
2018-09-10T00:23:33.176Z,16.15
2018-09-10T00:26:02.379Z,16.15
2018-09-10T00:28:31.758Z,16.15
2018-09-10T00:31:01.534Z,16.12
2018-09-10T00:33:30.740Z,16.04
2018-09-10T00:36:00.064Z,16.01
2018-09-10T00:38:29.298Z,16.02
2018-09-10T00:40:58.900Z,16.05
2018-09-10T00:43:28.101Z,16.04
2018-09-10T00:45:57.420Z,16.05
2018-09-10T00:48:27.275Z,16.05
2018-09-10T00:50:56.686Z,15.97
2018-09-10T00:53:25.941Z,16.11
2018-09-10T00:55:56.035Z,16.13
2018-09-10T00:58:25.131Z,16.02
2018-09-10T01:00:54.667Z,16.09
2018-09-10T01:03:23.719Z,16.07
2018-09-10T01:05:53.166Z,16.11
2018-09-10T01:08:22.431Z,16.12
2018-09-10T01:10:52.511Z,16.15
2018-09-10T01:13:21.450Z,16.11
2018-09-10T01:15:50.759Z,16.13
2018-09-10T01:18:20.347Z,16.21
2018-09-10T01:20:49.471Z,16.25
2018-09-10T01:23:18.964Z,16.25
2018-09-10T01:25:48.265Z,16.26
2018-09-10T01:28:17.339Z,16.24
2018-09-10T01:30:46.290Z,16.23
2018-09-10T01:33:20.710Z,16.27
2018-09-10T01:35:49.975Z,16.27
2018-09-10T01:38:19.247Z,16.33
2018-09-10T01:40:48.984Z,16.36
2018-09-10T01:43:18.059Z,16.30
2018-09-10T01:45:47.562Z,16.31
2018-09-10T01:48:17.876Z,16.27
2018-09-10T01:50:47.431Z,16.30
2018-09-10T01:53:16.698Z,16.22
2018-09-10T01:55:46.260Z,16.27
2018-09-10T01:58:15.510Z,16.26
2018-09-10T02:00:44.817Z,16.22
2018-09-10T02:03:14.303Z,16.10
2018-09-10T02:05:43.850Z,16.10
2018-09-10T02:08:13.332Z,16.10
2018-09-10T02:10:42.879Z,16.08
2018-09-10T02:13:12.141Z,16.08
2018-09-10T02:15:46.543Z,16.12
2018-09-10T02:18:15.490Z,16.12
2018-09-10T02:20:44.834Z,16.00
2018-09-10T02:23:14.054Z,15.98
2018-09-10T02:25:43.332Z,15.91
2018-09-10T02:28:12.313Z,15.92
2018-09-10T02:30:41.563Z,15.88
2018-09-10T02:33:11.452Z,15.81
2018-09-10T02:35:40.541Z,15.84
2018-09-10T02:38:10.841Z,15.77
2018-09-10T02:40:40.202Z,15.73
2018-09-10T02:43:10.633Z,15.63
2018-09-10T02:45:40.712Z,15.73
2018-09-10T02:48:10.714Z,15.57
2018-09-10T02:50:40.224Z,15.72
2018-09-10T02:53:09.807Z,15.85
2018-09-10T02:55:39.269Z,15.63
2018-09-10T02:58:08.509Z,15.64
2018-09-10T03:00:38.102Z,15.62
2018-09-10T03:03:07.367Z,15.62
2018-09-10T03:05:36.636Z,15.57
2018-09-10T03:08:06.618Z,15.41
2018-09-10T03:10:35.845Z,15.39
2018-09-10T03:13:05.208Z,15.60
2018-09-10T03:15:34.470Z,15.69
2018-09-10T03:18:03.597Z,15.68
2018-09-10T03:20:32.659Z,15.61
2018-09-10T03:23:02.326Z,15.71
2018-09-10T03:25:31.914Z,15.61
2018-09-10T03:28:01.139Z,15.54
2018-09-10T03:30:31.630Z,15.52
2018-09-10T03:33:00.792Z,15.44
2018-09-10T03:35:29.933Z,15.33
2018-09-10T03:38:00.053Z,15.35
2018-09-10T03:40:29.307Z,15.24
2018-09-10T03:42:58.447Z,15.31
2018-09-10T03:45:28.018Z,15.35
2018-09-10T03:47:57.387Z,15.33
2018-09-10T03:50:26.892Z,15.33
2018-09-10T03:52:56.009Z,15.46
2018-09-10T03:55:24.996Z,15.33
2018-09-10T03:57:54.391Z,15.31
2018-09-10T04:00:23.342Z,15.25
2018-09-10T04:02:52.388Z,15.30
2018-09-10T04:05:22.107Z,15.27
2018-09-10T04:07:51.203Z,15.42
2018-09-10T04:10:20.664Z,15.40
2018-09-10T04:12:50.235Z,15.42
2018-09-10T04:15:19.926Z,15.31
2018-09-10T04:17:49.014Z,15.39
2018-09-10T04:20:18.091Z,15.44
2018-09-10T04:22:48.027Z,15.31
2018-09-10T04:25:17.324Z,15.38
2018-09-10T04:27:47.441Z,15.45
2018-09-10T04:30:16.553Z,15.31
2018-09-10T04:32:46.003Z,15.42
2018-09-10T04:35:15.559Z,15.40
2018-09-10T04:37:45.051Z,15.15
2018-09-10T04:40:14.379Z,15.32
2018-09-10T04:42:43.891Z,15.34
2018-09-10T04:45:13.210Z,15.42
2018-09-10T04:47:42.471Z,15.38
2018-09-10T04:50:11.561Z,15.39
2018-09-10T04:52:40.631Z,15.49
2018-09-10T04:55:10.177Z,15.46
2018-09-10T04:57:39.678Z,15.63
2018-09-10T05:00:09.610Z,15.48
2018-09-10T05:02:38.986Z,15.61
2018-09-10T05:05:08.154Z,15.55
2018-09-10T05:07:37.794Z,15.59
2018-09-10T05:10:07.448Z,15.64
2018-09-10T05:12:36.498Z,15.64
2018-09-10T05:15:05.974Z,15.65
2018-09-10T05:17:35.056Z,15.69
2018-09-10T05:20:04.212Z,15.62
2018-09-10T05:22:33.248Z,15.59
2018-09-10T05:25:02.170Z,15.65
2018-09-10T05:27:31.235Z,15.66
2018-09-10T05:30:00.660Z,15.63
2018-09-10T05:32:29.863Z,15.71
2018-09-10T05:34:59.647Z,15.70
2018-09-10T05:37:28.853Z,15.54
2018-09-10T05:39:58.189Z,15.70
2018-09-10T05:42:27.236Z,15.46
2018-09-10T05:44:56.378Z,15.63
2018-09-10T05:47:30.745Z,15.64
2018-09-10T05:49:59.868Z,15.67
2018-09-10T05:52:28.863Z,15.77
2018-09-10T05:54:58.065Z,15.87
2018-09-10T05:57:27.227Z,16.00
2018-09-10T05:59:56.492Z,16.19
2018-09-10T06:02:25.757Z,16.15
2018-09-10T06:04:55.919Z,16.20
2018-09-10T06:07:25.227Z,16.25
2018-09-10T06:09:54.471Z,16.25
2018-09-10T06:12:23.820Z,16.29
2018-09-10T06:14:53.064Z,16.28
2018-09-10T06:17:22.002Z,16.30
2018-09-10T06:19:51.430Z,16.32
2018-09-10T06:22:21.704Z,16.48
2018-09-10T06:24:51.121Z,16.52
2018-09-10T06:27:20.849Z,16.56
2018-09-10T06:29:50.712Z,16.75
2018-09-10T06:32:20.102Z,16.71
2018-09-10T06:34:49.936Z,16.69
2018-09-10T06:37:18.896Z,16.63
2018-09-10T06:39:48.812Z,16.68
2018-09-10T06:42:18.708Z,16.65
2018-09-10T06:44:49.192Z,16.84
2018-09-10T06:47:18.696Z,16.97
2018-09-10T06:49:48.079Z,16.84
2018-09-10T06:52:17.281Z,16.87
2018-09-10T06:54:46.387Z,17.06
2018-09-10T06:57:15.897Z,17.18
2018-09-10T06:59:45.042Z,17.03
2018-09-10T07:02:14.465Z,17.12
2018-09-10T07:04:43.571Z,17.05
2018-09-10T07:07:13.495Z,17.20
2018-09-10T07:09:42.591Z,17.21
2018-09-10T07:12:12.075Z,17.00
2018-09-10T07:14:41.203Z,17.21
2018-09-10T07:17:10.361Z,17.24
2018-09-10T07:19:39.587Z,17.50
2018-09-10T07:22:08.894Z,17.64
2018-09-10T07:24:38.244Z,17.75
2018-09-10T07:27:07.666Z,17.80
2018-09-10T07:29:36.966Z,17.93
2018-09-10T07:32:06.095Z,17.98
2018-09-10T07:34:35.064Z,17.76
2018-09-10T07:37:04.495Z,18.06
2018-09-10T07:39:34.477Z,17.98
2018-09-10T07:42:03.502Z,18.46
2018-09-10T07:44:32.822Z,18.70
2018-09-10T07:47:02.987Z,18.87
2018-09-10T07:49:32.922Z,19.11
2018-09-10T07:52:02.359Z,18.90
2018-09-10T07:54:31.635Z,18.99
2018-09-10T07:57:02.049Z,19.29
2018-09-10T07:59:31.244Z,19.24
2018-09-10T08:02:00.358Z,19.52
2018-09-10T08:04:30.231Z,19.26
2018-09-10T08:07:00.012Z,19.65
2018-09-10T08:09:29.102Z,20.10
2018-09-10T08:11:58.356Z,20.22
2018-09-10T08:14:27.461Z,19.77
2018-09-10T08:16:57.233Z,19.67
2018-09-10T08:19:26.469Z,19.48
2018-09-10T08:21:55.927Z,20.06
2018-09-10T08:24:25.137Z,20.29
2018-09-10T08:26:58.727Z,20.15
2018-09-10T08:29:28.499Z,20.13
2018-09-10T08:31:57.835Z,20.34
2018-09-10T08:34:26.978Z,20.95
2018-09-10T08:36:56.111Z,21.24
2018-09-10T08:39:25.206Z,21.68
2018-09-10T08:41:54.291Z,21.93
2018-09-10T08:44:23.811Z,22.26
2018-09-10T08:46:53.084Z,21.95
2018-09-10T08:49:22.182Z,21.80
2018-09-10T08:51:51.258Z,22.06
2018-09-10T08:54:20.813Z,22.35
2018-09-10T08:56:50.358Z,22.23
2018-09-10T08:59:19.771Z,21.16
2018-09-10T09:01:49.080Z,21.22
2018-09-10T09:04:18.178Z,21.90
2018-09-10T09:06:47.842Z,22.72
2018-09-10T09:09:17.062Z,22.28
2018-09-10T09:11:46.492Z,22.97
2018-09-10T09:14:15.571Z,23.15
2018-09-10T09:16:45.939Z,23.51
2018-09-10T09:19:15.368Z,23.56
2018-09-10T09:21:44.970Z,24.24
2018-09-10T09:24:14.230Z,23.74
2018-09-10T09:26:43.292Z,23.24
2018-09-10T09:29:13.050Z,24.24
2018-09-10T09:31:42.349Z,23.48
2018-09-10T09:34:11.538Z,23.19
2018-09-10T09:36:45.685Z,23.94
2018-09-10T09:41:21.683Z,24.24
2018-09-10T09:43:56.454Z,25.06
2018-09-10T09:46:25.655Z,25.41
2018-09-10T09:48:55.175Z,24.58
2018-09-10T09:51:24.450Z,25.19
2018-09-10T09:53:53.379Z,25.08
2018-09-10T09:56:23.654Z,25.21
2018-09-10T09:58:52.937Z,25.40
2018-09-10T10:01:23.855Z,26.02
2018-09-10T10:03:57.992Z,26.88
2018-09-10T10:06:27.267Z,26.13
2018-09-10T10:08:56.496Z,25.92
2018-09-10T10:11:25.794Z,26.09
2018-09-10T10:13:55.276Z,26.12
2018-09-10T10:16:24.450Z,24.62
2018-09-10T10:18:53.372Z,25.24
2018-09-10T10:21:22.569Z,25.78
2018-09-10T10:23:51.749Z,25.36
2018-09-10T10:26:20.987Z,25.67
2018-09-10T10:28:50.963Z,25.21
2018-09-10T10:31:20.433Z,25.09
2018-09-10T10:33:49.537Z,25.27
2018-09-10T10:36:18.858Z,24.92
2018-09-10T10:38:49.142Z,25.86
2018-09-10T10:41:18.220Z,26.44
2018-09-10T10:43:47.903Z,26.55
2018-09-10T10:46:18.451Z,27.04
2018-09-10T10:48:47.714Z,27.00
2018-09-10T10:51:16.645Z,25.98
2018-09-10T10:53:46.133Z,25.22
2018-09-10T10:56:15.246Z,26.43
2018-09-10T10:58:44.598Z,27.09
2018-09-10T11:01:15.239Z,27.04
2018-09-10T11:03:44.187Z,26.98
2018-09-10T11:06:13.654Z,26.90
2018-09-10T11:08:43.396Z,26.64
2018-09-10T11:11:12.775Z,26.86
2018-09-10T11:13:41.755Z,27.44
2018-09-10T11:16:10.817Z,28.24
2018-09-10T11:18:40.959Z,28.38
2018-09-10T11:21:11.122Z,28.57
2018-09-10T11:23:40.630Z,28.28
2018-09-10T11:26:09.879Z,28.85
2018-09-10T11:28:39.034Z,29.13
2018-09-10T11:31:08.478Z,27.26
2018-09-10T11:33:37.959Z,26.86
2018-09-10T11:36:07.617Z,26.66
2018-09-10T11:38:36.870Z,26.53
2018-09-10T11:41:06.658Z,26.12
2018-09-10T11:43:36.978Z,26.50
2018-09-10T11:46:06.182Z,25.52
2018-09-10T11:48:35.735Z,25.04
2018-09-10T11:51:05.249Z,26.11
2018-09-10T11:53:34.957Z,26.07
2018-09-10T11:56:04.210Z,26.05
2018-09-10T11:58:33.494Z,25.58
2018-09-10T12:01:03.047Z,25.97
2018-09-10T12:03:33.121Z,26.25
2018-09-10T12:06:02.849Z,26.18
2018-09-10T12:08:32.530Z,25.93
2018-09-10T12:11:01.850Z,26.47
2018-09-10T12:13:31.352Z,26.88
2018-09-10T12:16:00.592Z,26.87
2018-09-10T12:18:29.776Z,26.81
2018-09-10T12:20:59.249Z,27.32
2018-09-10T12:23:28.332Z,26.97
2018-09-10T12:25:58.109Z,27.52
2018-09-10T12:28:27.334Z,26.81
2018-09-10T12:30:56.547Z,27.79
2018-09-10T12:33:25.762Z,27.64
2018-09-10T12:35:55.114Z,27.80
2018-09-10T12:38:24.615Z,27.78
2018-09-10T12:40:53.869Z,27.04
2018-09-10T12:43:23.342Z,27.19
2018-09-10T12:45:52.319Z,27.74
2018-09-10T12:48:21.530Z,26.52
2018-09-10T12:50:50.522Z,26.55
2018-09-10T12:53:20.175Z,26.37
2018-09-10T12:55:49.231Z,25.81
2018-09-10T12:58:19.101Z,25.82
2018-09-10T13:00:48.805Z,25.51
2018-09-10T13:03:18.111Z,25.09
2018-09-10T13:05:47.267Z,24.96
2018-09-10T13:08:16.415Z,25.05
2018-09-10T13:10:45.731Z,25.39
2018-09-10T13:13:14.782Z,25.29
2018-09-10T13:15:44.234Z,25.18
2018-09-10T13:18:13.355Z,25.22
2018-09-10T13:20:42.451Z,25.40
2018-09-10T13:23:11.799Z,25.34
2018-09-10T13:25:41.039Z,24.86
2018-09-10T13:28:10.231Z,25.38
2018-09-10T13:30:39.429Z,25.53
2018-09-10T13:33:09.166Z,25.66
2018-09-10T13:35:38.287Z,25.72
2018-09-10T13:38:07.255Z,25.60
2018-09-10T13:40:36.425Z,25.58
2018-09-10T13:43:05.782Z,25.55
2018-09-10T13:45:35.261Z,25.45
2018-09-10T13:48:04.983Z,25.65
2018-09-10T13:50:34.246Z,25.87
2018-09-10T13:53:03.362Z,25.70
2018-09-10T13:55:32.662Z,25.24
2018-09-10T13:58:02.847Z,25.41
2018-09-10T14:00:32.241Z,24.92
2018-09-10T14:03:01.381Z,24.93
2018-09-10T14:05:30.721Z,24.91
2018-09-10T14:08:00.122Z,25.12
2018-09-10T14:10:29.707Z,25.13
2018-09-10T14:12:59.001Z,24.82
2018-09-10T14:15:29.163Z,24.86
2018-09-10T14:17:58.379Z,25.16
2018-09-10T14:20:27.914Z,25.04
2018-09-10T14:22:56.979Z,25.13
2018-09-10T14:25:26.532Z,24.54
2018-09-10T14:27:55.952Z,24.80
2018-09-10T14:30:26.652Z,24.61
2018-09-10T14:32:56.372Z,24.54
2018-09-10T14:35:26.226Z,24.53
2018-09-10T14:37:55.155Z,24.45
2018-09-10T14:40:24.588Z,24.42
2018-09-10T14:42:53.645Z,23.97
2018-09-10T14:45:23.278Z,24.08
2018-09-10T14:47:53.543Z,24.16
2018-09-10T14:50:22.811Z,24.06
2018-09-10T14:52:52.099Z,23.88
2018-09-10T14:55:21.683Z,23.82
2018-09-10T14:57:50.938Z,23.79
2018-09-10T15:00:25.507Z,23.83
2018-09-10T15:02:55.496Z,23.56
2018-09-10T15:05:24.483Z,23.59
2018-09-10T15:07:54.872Z,23.61
2018-09-10T15:10:24.809Z,23.56
2018-09-10T15:12:53.964Z,23.48
2018-09-10T15:15:23.279Z,23.66
2018-09-10T15:17:52.470Z,23.74
2018-09-10T15:20:21.534Z,23.75
2018-09-10T15:22:51.077Z,23.94
2018-09-10T15:25:20.343Z,23.84
2018-09-10T15:27:49.455Z,23.97
2018-09-10T15:30:18.558Z,23.89
2018-09-10T15:32:48.138Z,23.88
2018-09-10T15:35:17.355Z,23.75
2018-09-10T15:37:47.051Z,23.69
2018-09-10T15:40:16.377Z,23.80
2018-09-10T15:42:45.948Z,23.66
2018-09-10T15:45:16.238Z,23.72
2018-09-10T15:47:45.347Z,23.76
2018-09-10T15:50:14.507Z,23.62
2018-09-10T15:52:44.276Z,23.79
2018-09-10T15:55:13.556Z,23.59
2018-09-10T15:57:43.314Z,23.57
2018-09-10T16:00:13.450Z,23.67
2018-09-10T16:02:42.523Z,23.50
2018-09-10T16:05:12.206Z,23.41
2018-09-10T16:07:41.979Z,23.58
2018-09-10T16:10:10.938Z,23.51
2018-09-10T16:12:39.935Z,23.46
2018-09-10T16:15:09.275Z,23.66
2018-09-10T16:17:38.246Z,23.40
2018-09-10T16:20:07.910Z,23.26
2018-09-10T16:25:07.612Z,23.25
2018-09-10T16:27:37.235Z,23.15
2018-09-10T16:30:07.339Z,23.18
2018-09-10T16:32:36.578Z,23.20
2018-09-10T16:35:06.595Z,23.22
2018-09-10T16:37:36.843Z,22.91
2018-09-10T16:40:06.791Z,23.06
2018-09-10T16:42:36.151Z,22.87
2018-09-10T16:45:05.977Z,22.91
2018-09-10T16:47:35.450Z,23.04
2018-09-10T16:50:05.591Z,22.89
2018-09-10T16:52:34.690Z,22.93
2018-09-10T16:55:04.075Z,22.92
2018-09-10T16:57:33.280Z,22.73
2018-09-10T17:00:02.363Z,22.81
2018-09-10T17:02:31.722Z,22.79
2018-09-10T17:05:00.999Z,22.69
2018-09-10T17:07:30.503Z,22.65
2018-09-10T17:10:00.134Z,22.57
2018-09-10T17:12:29.476Z,22.68
2018-09-10T17:14:58.557Z,22.74
2018-09-10T17:17:27.656Z,22.57
2018-09-10T17:19:57.036Z,22.54
2018-09-10T17:22:26.524Z,22.50
2018-09-10T17:24:55.555Z,22.38
2018-09-10T17:27:24.758Z,22.30
2018-09-10T17:29:54.172Z,22.18
2018-09-10T17:32:24.431Z,22.25
2018-09-10T17:34:53.603Z,22.26
2018-09-10T17:37:22.923Z,22.08
2018-09-10T17:39:52.819Z,21.96
2018-09-10T17:42:22.101Z,22.01
2018-09-10T17:44:51.469Z,21.97
2018-09-10T17:47:20.936Z,21.95
2018-09-10T17:49:50.990Z,21.81
2018-09-10T17:52:20.238Z,21.77
2018-09-10T17:54:49.227Z,21.68
2018-09-10T17:57:18.554Z,21.69
2018-09-10T17:59:48.232Z,21.55
2018-09-10T18:02:17.788Z,21.50
2018-09-10T18:04:47.551Z,21.44
2018-09-10T18:07:16.946Z,21.29
2018-09-10T18:09:46.307Z,21.22
2018-09-10T18:12:15.735Z,21.21
2018-09-10T18:14:45.590Z,21.07
2018-09-10T18:17:15.094Z,21.00
2018-09-10T18:19:44.977Z,20.90
2018-09-10T18:22:14.203Z,20.80
2018-09-10T18:24:44.376Z,20.75
2018-09-10T18:27:13.591Z,20.65
2018-09-10T18:29:42.688Z,20.65
2018-09-10T18:32:12.034Z,20.45
2018-09-10T18:34:41.686Z,20.21
2018-09-10T18:37:11.014Z,20.14
2018-09-10T18:39:40.351Z,20.11
2018-09-10T18:42:09.605Z,20.04
2018-09-10T18:44:38.563Z,20.02
2018-09-10T18:47:07.632Z,20.07
2018-09-10T18:49:37.119Z,20.02
2018-09-10T18:52:07.229Z,19.98
2018-09-10T18:54:36.962Z,19.87
2018-09-10T18:57:06.234Z,19.84
2018-09-10T18:59:35.515Z,19.75
2018-09-10T19:02:05.244Z,19.76
2018-09-10T19:04:34.538Z,19.59
2018-09-10T19:07:04.055Z,19.54
2018-09-10T19:09:33.763Z,19.46
2018-09-10T19:12:02.803Z,19.48
2018-09-10T19:14:32.210Z,19.19
2018-09-10T19:17:01.847Z,19.16
2018-09-10T19:19:31.375Z,19.21
2018-09-10T19:22:00.686Z,19.17
2018-09-10T19:24:29.783Z,19.17
2018-09-10T19:27:00.399Z,19.18
2018-09-10T19:29:29.595Z,19.06
2018-09-10T19:31:58.727Z,19.12
2018-09-10T19:34:28.034Z,19.07
2018-09-10T19:36:58.129Z,19.09
2018-09-10T19:39:27.619Z,18.90
2018-09-10T19:41:56.699Z,19.03
2018-09-10T19:44:26.295Z,18.92
2018-09-10T19:46:56.123Z,18.84
2018-09-10T19:49:25.465Z,18.83
2018-09-10T19:51:55.706Z,18.75
2018-09-10T19:54:25.255Z,18.62
2018-09-10T19:56:56.456Z,18.63
2018-09-10T19:59:25.794Z,18.61
2018-09-10T20:01:55.502Z,18.69
2018-09-10T20:04:24.931Z,18.68
2018-09-10T20:06:54.333Z,18.62
2018-09-10T20:09:25.415Z,18.51
2018-09-10T20:11:55.035Z,18.47
2018-09-10T20:14:24.559Z,18.35
2018-09-10T20:16:54.920Z,18.31
2018-09-10T20:19:24.186Z,18.12
2018-09-10T20:21:54.438Z,18.11
2018-09-10T20:24:23.605Z,18.21
2018-09-10T20:26:53.117Z,18.15
2018-09-10T20:29:22.411Z,18.19
2018-09-10T20:31:51.726Z,18.19
2018-09-10T20:34:21.615Z,18.10
2018-09-10T20:36:50.588Z,18.20
2018-09-10T20:39:20.423Z,18.29
2018-09-10T20:41:49.575Z,18.35
2018-09-10T20:44:18.806Z,18.52
2018-09-10T20:46:47.969Z,18.46
2018-09-10T20:49:17.231Z,18.42
2018-09-10T20:51:46.758Z,18.39
2018-09-10T20:54:16.024Z,18.35
2018-09-10T20:56:45.319Z,18.34
2018-09-10T20:59:14.820Z,18.37
2018-09-10T21:01:44.602Z,18.14
2018-09-10T21:04:14.621Z,18.07
2018-09-10T21:06:43.743Z,17.87
2018-09-10T21:09:13.984Z,18.00
2018-09-10T21:11:43.241Z,17.96
2018-09-10T21:14:12.676Z,17.92
2018-09-10T21:16:42.177Z,17.95
2018-09-10T21:19:11.887Z,17.98
2018-09-10T21:21:41.203Z,17.90
2018-09-10T21:24:10.906Z,17.82
2018-09-10T21:26:40.000Z,17.78
2018-09-10T21:29:09.003Z,17.64
2018-09-10T21:31:38.232Z,17.62
2018-09-10T21:34:08.148Z,17.54
2018-09-10T21:36:37.408Z,17.52
2018-09-10T21:39:08.520Z,17.51
2018-09-10T21:41:37.551Z,17.45
2018-09-10T21:44:07.171Z,17.33
2018-09-10T21:46:36.432Z,17.35
2018-09-10T21:49:06.170Z,17.22
2018-09-10T21:51:35.677Z,17.40
2018-09-10T21:54:05.083Z,17.13
2018-09-10T21:56:34.265Z,17.09
2018-09-10T21:59:04.155Z,17.18
2018-09-10T22:01:33.693Z,17.09
2018-09-10T22:04:02.835Z,16.91
2018-09-10T22:06:32.066Z,16.85
2018-09-10T22:09:01.338Z,16.83
2018-09-10T22:11:30.635Z,17.14
2018-09-10T22:14:00.355Z,17.38
2018-09-10T22:16:29.467Z,17.46
2018-09-10T22:18:59.226Z,17.53
2018-09-10T22:21:28.488Z,17.59
2018-09-10T22:23:57.980Z,17.57
2018-09-10T22:26:26.927Z,17.48
2018-09-10T22:28:56.182Z,17.48
2018-09-10T22:31:25.507Z,17.45
2018-09-10T22:33:54.990Z,17.50
2018-09-10T22:36:24.110Z,17.47
2018-09-10T22:38:53.612Z,17.36
2018-09-10T22:41:22.878Z,17.49
2018-09-10T22:43:52.258Z,17.52
2018-09-10T22:46:22.666Z,17.54
2018-09-10T22:48:52.211Z,17.33
2018-09-10T22:51:21.510Z,17.32
2018-09-10T22:53:50.465Z,17.32
2018-09-10T22:56:19.726Z,17.28
2018-09-10T22:58:49.446Z,17.33
2018-09-10T23:01:18.494Z,17.23
2018-09-10T23:03:47.662Z,17.22
2018-09-10T23:06:17.315Z,17.34
2018-09-10T23:08:46.558Z,17.48
2018-09-10T23:11:16.566Z,17.53
2018-09-10T23:13:46.074Z,17.62
2018-09-10T23:16:16.350Z,17.78
2018-09-10T23:18:45.442Z,17.87
2018-09-10T23:21:14.570Z,17.92
2018-09-10T23:23:43.566Z,17.94
2018-09-10T23:26:13.025Z,17.95
2018-09-10T23:28:42.479Z,17.93
2018-09-10T23:31:11.550Z,18.06
2018-09-10T23:33:40.655Z,17.90
2018-09-10T23:36:10.213Z,17.96
2018-09-10T23:38:39.519Z,18.04
2018-09-10T23:41:08.739Z,17.97
2018-09-10T23:43:38.067Z,18.01
2018-09-10T23:46:07.391Z,18.04
2018-09-10T23:48:36.706Z,18.10
2018-09-10T23:51:06.393Z,18.08
2018-09-10T23:53:35.664Z,17.99
2018-09-10T23:56:04.886Z,17.93
2018-09-10T23:58:34.274Z,17.82
